createdAt,value
2023-01-13T00:00:46.752Z,0.00
2023-01-13T00:01:46.708Z,0.00
2023-01-13T00:02:46.722Z,0.00
2023-01-13T00:03:46.675Z,0.00
2023-01-13T00:04:46.709Z,0.00
2023-01-13T00:05:46.654Z,0.00
2023-01-13T00:06:46.652Z,0.00
2023-01-13T00:07:46.623Z,0.00
2023-01-13T00:08:46.631Z,0.00
2023-01-13T00:09:46.628Z,0.00
2023-01-13T00:10:46.609Z,0.00
2023-01-13T00:11:46.616Z,0.00
2023-01-13T00:12:46.563Z,0.00
2023-01-13T00:13:46.572Z,0.00
2023-01-13T00:14:46.567Z,0.00
2023-01-13T00:15:46.580Z,0.00
2023-01-13T00:16:46.596Z,0.00
2023-01-13T00:17:46.520Z,0.00
2023-01-13T00:18:46.519Z,0.00
2023-01-13T00:19:46.549Z,0.00
2023-01-13T00:20:46.510Z,0.00
2023-01-13T00:21:46.519Z,0.00
2023-01-13T00:22:46.496Z,0.00
2023-01-13T00:23:46.459Z,0.00
2023-01-13T00:24:46.442Z,0.00
2023-01-13T00:25:46.446Z,0.00
2023-01-13T00:26:46.422Z,0.00
2023-01-13T00:27:46.436Z,0.00
2023-01-13T00:28:46.409Z,0.00
2023-01-13T00:29:46.396Z,0.00
2023-01-13T00:30:46.384Z,0.00
2023-01-13T00:31:46.399Z,0.00
2023-01-13T00:32:46.367Z,0.00
2023-01-13T00:33:46.381Z,0.00
2023-01-13T00:34:46.360Z,0.00
2023-01-13T00:35:46.337Z,0.00
2023-01-13T00:36:46.352Z,0.00
2023-01-13T00:37:46.319Z,0.00
2023-01-13T00:38:46.329Z,0.00
2023-01-13T00:39:46.328Z,0.00
2023-01-13T00:40:46.263Z,0.00
2023-01-13T00:41:46.281Z,0.00
2023-01-13T00:42:46.272Z,0.00
2023-01-13T00:43:46.242Z,0.00
2023-01-13T00:44:46.257Z,0.00
2023-01-13T00:45:46.225Z,0.00
2023-01-13T00:46:46.262Z,0.00
2023-01-13T00:47:46.208Z,0.00
2023-01-13T00:48:46.203Z,0.00
2023-01-13T00:49:46.215Z,0.00
2023-01-13T00:50:46.192Z,0.00
2023-01-13T00:51:46.169Z,0.00
2023-01-13T00:52:46.170Z,0.00
2023-01-13T00:53:46.146Z,0.00
2023-01-13T00:54:46.131Z,0.00
2023-01-13T00:55:46.135Z,0.00
2023-01-13T00:56:46.124Z,0.00
2023-01-13T00:57:46.088Z,0.00
2023-01-13T00:58:46.093Z,0.00
2023-01-13T00:59:47.151Z,0.00
2023-01-13T01:00:46.107Z,0.00
2023-01-13T01:01:46.192Z,0.00
2023-01-13T01:02:46.138Z,0.00
2023-01-13T01:03:46.037Z,0.00
2023-01-13T01:04:46.052Z,0.00
2023-01-13T01:05:46.015Z,0.00
2023-01-13T01:10:15.676Z,0.00
2023-01-13T01:11:15.662Z,0.00
2023-01-13T01:12:15.650Z,0.00
2023-01-13T01:13:15.605Z,0.00
2023-01-13T01:14:15.590Z,0.00
2023-01-13T01:15:15.589Z,0.00
2023-01-13T01:16:15.660Z,0.00
2023-01-13T01:17:15.576Z,0.00
2023-01-13T01:18:15.566Z,0.00
2023-01-13T01:19:15.552Z,0.00
2023-01-13T01:20:15.547Z,0.00
2023-01-13T01:21:15.515Z,0.00
2023-01-13T01:22:15.544Z,0.00
2023-01-13T01:23:15.490Z,0.00
2023-01-13T01:24:15.490Z,0.00
2023-01-13T01:25:15.478Z,0.00
2023-01-13T01:26:15.489Z,0.00
2023-01-13T01:27:15.474Z,0.00
2023-01-13T01:28:15.477Z,0.00
2023-01-13T01:29:15.439Z,0.00
2023-01-13T01:30:15.423Z,0.00
2023-01-13T01:31:15.431Z,0.00
2023-01-13T01:32:15.441Z,0.00
2023-01-13T01:33:15.391Z,0.00
2023-01-13T01:34:15.436Z,0.00
2023-01-13T01:35:15.376Z,0.00
2023-01-13T01:36:15.378Z,0.00
2023-01-13T01:37:15.372Z,0.00
2023-01-13T01:38:15.385Z,0.00
2023-01-13T01:39:15.351Z,0.00
2023-01-13T01:40:15.361Z,0.00
2023-01-13T01:41:15.330Z,0.00
2023-01-13T01:42:15.319Z,0.00
2023-01-13T01:43:15.312Z,0.00
2023-01-13T01:44:15.305Z,0.00
2023-01-13T01:45:15.267Z,0.00
2023-01-13T01:46:15.317Z,0.00
2023-01-13T01:47:15.256Z,0.00
2023-01-13T01:48:15.244Z,0.00
2023-01-13T01:49:15.250Z,0.00
2023-01-13T01:50:15.252Z,0.00
2023-01-13T01:51:15.227Z,0.00
2023-01-13T01:52:15.209Z,0.00
2023-01-13T01:53:15.199Z,0.00
2023-01-13T01:54:15.203Z,0.00
2023-01-13T01:55:15.191Z,0.00
2023-01-13T01:56:15.163Z,0.00
2023-01-13T01:57:15.188Z,0.00
2023-01-13T01:58:15.134Z,0.00
2023-01-13T01:59:15.148Z,0.00
2023-01-13T02:00:15.164Z,0.00
2023-01-13T02:01:15.352Z,0.00
2023-01-13T02:02:15.282Z,0.00
2023-01-13T02:03:15.103Z,0.00
2023-01-13T02:04:15.109Z,0.00
2023-01-13T02:05:15.127Z,0.00
2023-01-13T02:06:15.061Z,0.00
2023-01-13T02:07:15.052Z,0.00
2023-01-13T02:08:15.040Z,0.00
2023-01-13T02:09:15.045Z,0.00
2023-01-13T02:10:15.023Z,0.00
2023-01-13T02:11:15.016Z,0.00
2023-01-13T02:12:15.031Z,0.00
2023-01-13T02:13:14.987Z,0.00
2023-01-13T02:14:14.993Z,0.00
2023-01-13T02:15:15.008Z,0.00
2023-01-13T02:16:15.008Z,0.00
2023-01-13T02:17:14.984Z,0.00
2023-01-13T02:18:14.953Z,0.00
2023-01-13T02:19:14.939Z,0.00
2023-01-13T02:20:14.985Z,0.00
2023-01-13T02:21:14.924Z,0.00
2023-01-13T02:22:14.899Z,0.00
2023-01-13T02:23:14.903Z,0.00
2023-01-13T02:24:14.890Z,0.00
2023-01-13T02:25:14.868Z,0.00
2023-01-13T02:26:14.893Z,0.00
2023-01-13T02:27:14.867Z,0.00
2023-01-13T02:28:14.823Z,0.00
2023-01-13T02:29:14.848Z,0.00
2023-01-13T02:30:14.843Z,0.00
2023-01-13T02:31:14.871Z,0.00
2023-01-13T02:32:14.791Z,0.00
2023-01-13T02:33:14.791Z,0.00
2023-01-13T02:34:14.795Z,0.00
2023-01-13T02:35:14.783Z,0.00
2023-01-13T02:36:14.774Z,0.00
2023-01-13T02:37:14.779Z,0.00
2023-01-13T02:38:14.724Z,0.00
2023-01-13T02:39:14.770Z,0.00
2023-01-13T02:40:14.740Z,0.00
2023-01-13T02:41:14.689Z,0.00
2023-01-13T02:42:14.718Z,0.00
2023-01-13T02:43:14.692Z,0.00
2023-01-13T02:44:14.665Z,0.00
2023-01-13T02:45:14.674Z,0.00
2023-01-13T02:46:14.661Z,0.00
2023-01-13T02:47:14.653Z,0.00
2023-01-13T02:48:14.633Z,0.00
2023-01-13T02:49:14.622Z,0.00
2023-01-13T02:50:14.612Z,0.00
2023-01-13T02:51:14.612Z,0.00
2023-01-13T02:52:14.587Z,0.00
2023-01-13T02:53:14.582Z,0.00
2023-01-13T02:54:14.584Z,0.00
2023-01-13T02:55:14.584Z,0.00
2023-01-13T02:56:14.543Z,0.00
2023-01-13T02:57:14.577Z,0.00
2023-01-13T02:58:14.533Z,0.00
2023-01-13T02:59:14.528Z,0.00
2023-01-13T03:00:14.546Z,0.00
2023-01-13T03:01:14.606Z,0.00
2023-01-13T03:02:14.746Z,0.00
2023-01-13T03:03:14.513Z,0.00
2023-01-13T03:04:14.498Z,0.00
2023-01-13T03:05:14.492Z,0.00
2023-01-13T03:06:14.464Z,0.00
2023-01-13T03:07:14.450Z,0.00
2023-01-13T03:08:14.487Z,0.00
2023-01-13T03:09:14.436Z,0.00
2023-01-13T03:10:14.442Z,0.00
2023-01-13T03:11:14.408Z,0.00
2023-01-13T03:12:14.406Z,0.00
2023-01-13T03:13:14.375Z,0.00
2023-01-13T03:14:14.408Z,0.00
2023-01-13T03:15:14.352Z,0.00
2023-01-13T03:16:14.418Z,0.00
2023-01-13T03:17:14.345Z,0.00
2023-01-13T03:18:14.352Z,0.00
2023-01-13T03:19:14.397Z,0.00
2023-01-13T03:20:14.328Z,0.00
2023-01-13T03:21:14.314Z,0.00
2023-01-13T03:22:14.300Z,0.00
2023-01-13T03:23:14.292Z,0.00
2023-01-13T03:24:14.284Z,0.00
2023-01-13T03:25:14.307Z,0.00
2023-01-13T03:26:14.271Z,0.00
2023-01-13T03:27:14.233Z,0.00
2023-01-13T03:28:14.259Z,0.00
2023-01-13T03:29:14.235Z,0.00
2023-01-13T03:30:14.245Z,0.00
2023-01-13T03:31:14.209Z,0.00
2023-01-13T03:32:14.224Z,0.00
2023-01-13T03:33:14.193Z,0.00
2023-01-13T03:34:14.194Z,0.00
2023-01-13T03:35:14.162Z,0.00
2023-01-13T03:36:14.184Z,0.00
2023-01-13T03:37:14.138Z,0.00
2023-01-13T03:38:14.202Z,0.00
2023-01-13T03:39:14.118Z,0.00
2023-01-13T03:40:14.140Z,0.00
2023-01-13T03:41:14.096Z,0.00
2023-01-13T03:42:14.096Z,0.00
2023-01-13T03:43:14.093Z,0.00
2023-01-13T03:44:14.102Z,0.00
2023-01-13T03:45:14.064Z,0.00
2023-01-13T03:46:14.095Z,0.00
2023-01-13T03:47:14.035Z,0.00
2023-01-13T03:48:14.055Z,0.00
2023-01-13T03:49:14.027Z,0.00
2023-01-13T03:50:14.044Z,0.00
2023-01-13T03:51:13.998Z,0.00
2023-01-13T03:52:13.988Z,0.00
2023-01-13T03:53:14.016Z,0.00
2023-01-13T03:54:13.989Z,0.00
2023-01-13T03:55:13.970Z,0.00
2023-01-13T03:56:13.949Z,0.00
2023-01-13T03:57:13.928Z,0.00
2023-01-13T03:58:14.021Z,0.00
2023-01-13T03:59:13.916Z,0.00
2023-01-13T04:00:13.913Z,0.00
2023-01-13T04:01:13.990Z,0.00
2023-01-13T04:02:13.958Z,0.00
2023-01-13T04:03:13.878Z,0.00
2023-01-13T04:04:13.860Z,0.00
2023-01-13T04:05:13.861Z,0.00
2023-01-13T04:06:13.875Z,0.00
2023-01-13T04:07:13.843Z,0.00
2023-01-13T04:08:13.835Z,0.00
2023-01-13T04:09:13.825Z,0.00
2023-01-13T04:10:13.837Z,0.00
2023-01-13T04:11:13.817Z,0.00
2023-01-13T04:12:13.810Z,0.00
2023-01-13T04:13:13.780Z,0.00
2023-01-13T04:14:13.764Z,0.00
2023-01-13T04:15:13.761Z,0.00
2023-01-13T04:16:13.782Z,0.00
2023-01-13T04:17:13.753Z,0.00
2023-01-13T04:18:13.723Z,0.00
2023-01-13T04:19:13.733Z,0.00
2023-01-13T04:20:13.720Z,0.00
2023-01-13T04:21:13.710Z,0.00
2023-01-13T04:22:13.695Z,0.00
2023-01-13T04:23:13.669Z,0.00
2023-01-13T04:24:13.662Z,0.00
2023-01-13T04:25:13.690Z,0.00
2023-01-13T04:26:13.629Z,0.00
2023-01-13T04:27:13.658Z,0.00
2023-01-13T04:28:13.621Z,0.00
2023-01-13T04:29:15.645Z,0.00
2023-01-13T04:30:13.611Z,0.00
2023-01-13T04:31:13.649Z,0.00
2023-01-13T04:32:13.593Z,0.00
2023-01-13T04:33:13.578Z,0.00
2023-01-13T04:34:13.553Z,0.00
2023-01-13T04:35:13.566Z,0.00
2023-01-13T04:36:13.582Z,0.00
2023-01-13T04:37:13.557Z,0.00
2023-01-13T04:38:13.515Z,0.00
2023-01-13T04:39:13.513Z,0.00
2023-01-13T04:40:13.497Z,0.00
2023-01-13T04:41:13.508Z,0.00
2023-01-13T04:42:13.483Z,0.00
2023-01-13T04:43:13.468Z,0.00
2023-01-13T04:44:13.454Z,0.00
2023-01-13T04:45:13.465Z,0.00
2023-01-13T04:46:13.495Z,0.00
2023-01-13T04:47:13.434Z,0.00
2023-01-13T04:48:13.445Z,0.00
2023-01-13T04:49:13.424Z,0.00
2023-01-13T04:50:13.394Z,0.00
2023-01-13T04:51:13.393Z,0.00
2023-01-13T04:52:13.370Z,0.00
2023-01-13T04:53:13.408Z,0.00
2023-01-13T04:54:13.406Z,0.00
2023-01-13T04:55:13.368Z,0.00
2023-01-13T04:56:13.323Z,0.00
2023-01-13T04:57:13.335Z,0.00
2023-01-13T04:58:13.305Z,0.00
2023-01-13T04:59:13.378Z,0.00
2023-01-13T05:00:13.311Z,0.00
2023-01-13T05:01:13.371Z,0.00
2023-01-13T05:02:13.289Z,0.00
2023-01-13T05:03:13.289Z,0.00
2023-01-13T05:04:13.271Z,16.00
2023-01-13T05:05:13.243Z,16.00
2023-01-13T05:06:13.216Z,0.00
2023-01-13T05:07:13.223Z,0.00
2023-01-13T05:08:13.231Z,0.00
2023-01-13T05:09:13.231Z,0.00
2023-01-13T05:10:13.203Z,0.00
2023-01-13T05:11:13.232Z,0.00
2023-01-13T05:12:13.158Z,0.00
2023-01-13T05:13:13.161Z,0.00
2023-01-13T05:14:13.162Z,0.00
2023-01-13T05:15:13.151Z,0.00
2023-01-13T05:16:13.157Z,0.00
2023-01-13T05:17:13.127Z,0.00
2023-01-13T05:18:13.111Z,0.00
2023-01-13T05:19:13.116Z,0.00
2023-01-13T05:20:13.131Z,0.00
2023-01-13T05:21:13.106Z,0.00
2023-01-13T05:22:13.063Z,0.00
2023-01-13T05:23:13.068Z,0.00
2023-01-13T05:24:13.042Z,0.00
2023-01-13T05:25:13.106Z,0.00
2023-01-13T05:26:13.044Z,0.00
2023-01-13T05:27:13.068Z,0.00
2023-01-13T05:28:13.005Z,0.00
2023-01-13T05:29:13.017Z,0.00
2023-01-13T05:30:12.973Z,0.00
2023-01-13T05:31:13.028Z,0.00
2023-01-13T05:32:12.990Z,0.00
2023-01-13T05:33:12.984Z,0.00
2023-01-13T05:34:12.936Z,0.00
2023-01-13T05:35:12.971Z,0.00
2023-01-13T05:36:12.919Z,0.00
2023-01-13T05:37:12.917Z,0.00
2023-01-13T05:38:12.941Z,0.00
2023-01-13T05:39:12.931Z,0.00
2023-01-13T05:40:12.896Z,0.00
2023-01-13T05:41:12.893Z,0.00
2023-01-13T05:42:12.852Z,0.00
2023-01-13T05:43:12.875Z,0.00
2023-01-13T05:44:12.865Z,0.00
2023-01-13T05:45:12.871Z,0.00
2023-01-13T05:46:12.849Z,0.00
2023-01-13T05:47:12.825Z,0.00
2023-01-13T05:48:12.799Z,0.00
2023-01-13T05:49:12.800Z,0.00
2023-01-13T05:50:12.789Z,0.00
2023-01-13T05:51:12.775Z,0.00
2023-01-13T05:52:12.778Z,0.00
2023-01-13T05:53:12.763Z,0.00
2023-01-13T05:54:12.750Z,0.00
2023-01-13T05:55:12.758Z,0.00
2023-01-13T05:56:12.716Z,0.00
2023-01-13T05:57:12.765Z,0.00
2023-01-13T05:58:12.685Z,0.00
2023-01-13T05:59:12.695Z,0.00
2023-01-13T06:00:12.663Z,0.00
2023-01-13T06:01:12.754Z,0.00
2023-01-13T06:02:12.662Z,0.00
2023-01-13T06:03:12.694Z,0.00
2023-01-13T06:04:12.688Z,0.00
2023-01-13T06:05:12.642Z,0.00
2023-01-13T06:06:12.648Z,0.00
2023-01-13T06:07:12.609Z,0.00
2023-01-13T06:08:12.601Z,0.00
2023-01-13T06:09:12.604Z,0.00
2023-01-13T06:10:12.602Z,0.00
2023-01-13T06:11:12.583Z,0.00
2023-01-13T06:12:12.561Z,0.00
2023-01-13T06:13:12.552Z,0.00
2023-01-13T06:14:12.561Z,0.00
2023-01-13T06:15:12.563Z,0.00
2023-01-13T06:16:12.576Z,0.00
2023-01-13T06:17:12.533Z,0.00
2023-01-13T06:18:12.479Z,0.00
2023-01-13T06:19:12.482Z,0.00
2023-01-13T06:20:12.481Z,0.00
2023-01-13T06:21:12.452Z,0.00
2023-01-13T06:22:12.474Z,0.00
2023-01-13T06:23:12.456Z,0.00
2023-01-13T06:24:12.440Z,0.00
2023-01-13T06:25:12.427Z,0.00
2023-01-13T06:26:12.410Z,0.00
2023-01-13T06:27:12.464Z,0.00
2023-01-13T06:28:12.395Z,0.00
2023-01-13T06:29:12.407Z,0.00
2023-01-13T06:30:12.380Z,0.00
2023-01-13T06:31:12.432Z,16.00
2023-01-13T06:32:12.373Z,0.00
2023-01-13T06:33:12.389Z,0.00
2023-01-13T06:34:12.339Z,0.00
2023-01-13T06:35:12.355Z,0.00
2023-01-13T06:36:12.291Z,0.00
2023-01-13T06:37:12.317Z,0.00
2023-01-13T06:38:12.311Z,0.00
2023-01-13T06:39:12.289Z,0.00
2023-01-13T06:40:12.274Z,0.00
2023-01-13T06:41:12.275Z,0.00
2023-01-13T06:42:12.266Z,0.00
2023-01-13T06:43:14.432Z,0.00
2023-01-13T06:44:12.237Z,0.00
2023-01-13T06:45:12.241Z,0.00
2023-01-13T06:46:12.206Z,0.00
2023-01-13T06:47:12.207Z,0.00
2023-01-13T06:48:12.204Z,0.00
2023-01-13T06:49:12.179Z,0.00
2023-01-13T06:50:12.153Z,0.00
2023-01-13T06:51:12.214Z,0.00
2023-01-13T06:52:12.150Z,0.00
2023-01-13T06:53:12.141Z,0.00
2023-01-13T06:54:12.151Z,0.00
2023-01-13T06:55:12.133Z,0.00
2023-01-13T06:56:12.110Z,4.00
2023-01-13T06:57:12.138Z,4.00
2023-01-13T06:58:12.075Z,4.00
2023-01-13T06:59:12.100Z,4.00
2023-01-13T07:00:12.070Z,0.00
2023-01-13T07:01:12.174Z,4.00
2023-01-13T07:02:12.227Z,4.00
2023-01-13T07:03:12.051Z,4.00
2023-01-13T07:04:12.040Z,4.00
2023-01-13T07:05:12.027Z,20.00
2023-01-13T07:06:12.006Z,4.00
2023-01-13T07:07:12.021Z,4.00
2023-01-13T07:08:11.978Z,8.00
2023-01-13T07:09:12.011Z,4.00
2023-01-13T07:10:11.973Z,4.00
2023-01-13T07:11:11.961Z,4.00
2023-01-13T07:12:11.944Z,4.00
2023-01-13T07:13:11.942Z,4.00
2023-01-13T07:14:11.929Z,8.00
2023-01-13T07:15:11.917Z,8.00
2023-01-13T07:16:11.905Z,12.00
2023-01-13T07:17:11.898Z,8.00
2023-01-13T07:18:11.895Z,12.00
2023-01-13T07:19:11.880Z,16.00
2023-01-13T07:20:11.890Z,20.00
2023-01-13T07:21:11.863Z,20.00
2023-01-13T07:22:11.838Z,44.00
2023-01-13T07:23:11.843Z,28.00
2023-01-13T07:24:11.819Z,48.00
2023-01-13T07:25:11.873Z,40.00
2023-01-13T07:26:11.840Z,68.00
2023-01-13T07:27:11.792Z,84.00
2023-01-13T07:28:11.765Z,88.00
2023-01-13T07:29:11.773Z,72.00
2023-01-13T07:30:11.771Z,92.00
2023-01-13T07:31:11.785Z,92.00
2023-01-13T07:32:11.719Z,108.00
2023-01-13T07:33:11.741Z,116.00
2023-01-13T07:34:11.725Z,88.00
2023-01-13T07:35:11.713Z,52.00
2023-01-13T07:36:11.741Z,52.00
2023-01-13T07:37:11.709Z,52.00
2023-01-13T07:38:11.717Z,48.00
2023-01-13T07:39:11.671Z,56.00
2023-01-13T07:40:11.650Z,68.00
2023-01-13T07:41:11.672Z,104.00
2023-01-13T07:42:11.652Z,120.00
2023-01-13T07:43:11.649Z,120.00
2023-01-13T07:44:11.639Z,132.00
2023-01-13T07:45:12.466Z,148.00
2023-01-13T07:46:11.643Z,152.00
2023-01-13T07:47:11.612Z,164.00
2023-01-13T07:48:11.598Z,172.00
2023-01-13T07:49:11.589Z,184.00
2023-01-13T07:50:11.546Z,200.00
2023-01-13T07:51:11.638Z,204.00
2023-01-13T07:52:11.559Z,180.00
2023-01-13T07:53:11.539Z,164.00
2023-01-13T07:54:11.513Z,160.00
2023-01-13T07:55:11.536Z,156.00
2023-01-13T07:56:11.597Z,160.00
2023-01-13T07:57:11.495Z,180.00
2023-01-13T07:58:11.545Z,176.00
2023-01-13T07:59:11.505Z,176.00
2023-01-13T08:00:12.930Z,156.00
2023-01-13T08:01:11.527Z,132.00
2023-01-13T08:02:11.597Z,108.00
2023-01-13T08:03:11.579Z,112.00
2023-01-13T08:04:11.395Z,100.00
2023-01-13T08:05:11.426Z,72.00
2023-01-13T08:06:11.392Z,92.00
2023-01-13T08:07:11.429Z,132.00
2023-01-13T08:08:11.390Z,192.00
2023-01-13T08:09:11.377Z,208.00
2023-01-13T08:10:11.336Z,232.00
2023-01-13T08:11:11.339Z,252.00
2023-01-13T08:12:11.329Z,240.00
2023-01-13T08:13:11.345Z,220.00
2023-01-13T08:14:11.307Z,216.00
2023-01-13T08:15:11.302Z,220.00
2023-01-13T08:16:11.487Z,192.00
2023-01-13T08:17:11.278Z,172.00
2023-01-13T08:18:11.332Z,172.00
2023-01-13T08:19:11.293Z,208.00
2023-01-13T08:20:11.300Z,284.00
2023-01-13T08:21:11.266Z,300.00
2023-01-13T08:22:11.269Z,352.00
2023-01-13T08:23:11.223Z,380.00
2023-01-13T08:24:11.266Z,348.00
2023-01-13T08:25:11.210Z,328.00
2023-01-13T08:26:11.242Z,328.00
2023-01-13T08:27:11.168Z,432.00
2023-01-13T08:28:11.202Z,580.00
2023-01-13T08:29:12.999Z,692.00
2023-01-13T08:30:11.175Z,688.00
2023-01-13T08:31:11.145Z,680.00
2023-01-13T08:32:11.387Z,736.00
2023-01-13T08:33:11.128Z,624.00
2023-01-13T08:34:11.132Z,608.00
2023-01-13T08:35:11.112Z,672.00
2023-01-13T08:36:11.084Z,724.00
2023-01-13T08:37:11.077Z,668.00
2023-01-13T08:38:11.095Z,560.00
2023-01-13T08:39:11.044Z,480.00
2023-01-13T08:40:11.066Z,456.00
2023-01-13T08:41:11.053Z,436.00
2023-01-13T08:42:11.037Z,368.00
2023-01-13T08:43:11.000Z,320.00
2023-01-13T08:44:11.021Z,288.00
2023-01-13T08:45:11.028Z,236.00
2023-01-13T08:46:11.059Z,280.00
2023-01-13T08:47:10.985Z,276.00
2023-01-13T08:48:11.019Z,328.00
2023-01-13T08:49:10.950Z,564.00
2023-01-13T08:50:10.992Z,648.00
2023-01-13T08:51:10.922Z,644.00
2023-01-13T08:52:10.962Z,928.00
2023-01-13T08:53:10.899Z,796.00
2023-01-13T08:54:10.915Z,676.00
2023-01-13T08:55:10.884Z,760.00
2023-01-13T08:56:11.029Z,600.00
2023-01-13T08:57:10.994Z,324.00
2023-01-13T08:58:15.670Z,248.00
2023-01-13T08:59:11.896Z,272.00
2023-01-13T09:00:10.879Z,324.00
2023-01-13T09:01:10.961Z,568.00
2023-01-13T09:02:11.068Z,1060.00
2023-01-13T09:03:10.872Z,1192.00
2023-01-13T09:04:10.839Z,1332.00
2023-01-13T09:05:11.015Z,1092.00
2023-01-13T09:06:10.814Z,960.00
2023-01-13T09:07:10.815Z,952.00
2023-01-13T09:08:10.791Z,1512.00
2023-01-13T09:09:10.746Z,1104.00
2023-01-13T09:10:10.776Z,1252.00
2023-01-13T09:11:10.728Z,1028.00
2023-01-13T09:12:10.733Z,1088.00
2023-01-13T09:13:10.745Z,876.00
2023-01-13T09:14:10.759Z,1000.00
2023-01-13T09:15:10.756Z,916.00
2023-01-13T09:16:10.736Z,1284.00
2023-01-13T09:17:10.689Z,1696.00
2023-01-13T09:18:10.932Z,1616.00
2023-01-13T09:19:10.654Z,1768.00
2023-01-13T09:20:10.647Z,1704.00
2023-01-13T09:21:10.670Z,1720.00
2023-01-13T09:22:10.695Z,2104.00
2023-01-13T09:23:11.465Z,1936.00
2023-01-13T09:24:10.620Z,1776.00
2023-01-13T09:25:10.563Z,2048.00
2023-01-13T09:26:10.581Z,1544.00
2023-01-13T09:27:10.555Z,1644.00
2023-01-13T09:28:10.634Z,1732.00
2023-01-13T09:29:10.549Z,1612.00
2023-01-13T09:30:10.571Z,1256.00
2023-01-13T09:31:10.663Z,1212.00
2023-01-13T09:32:10.527Z,1332.00
2023-01-13T09:33:10.578Z,1196.00
2023-01-13T09:34:10.522Z,1156.00
2023-01-13T09:35:10.487Z,1444.00
2023-01-13T09:36:10.513Z,1920.00
2023-01-13T09:37:10.449Z,1404.00
2023-01-13T09:38:10.469Z,1028.00
2023-01-13T09:39:10.488Z,972.00
2023-01-13T09:40:10.473Z,1104.00
2023-01-13T09:41:10.446Z,948.00
2023-01-13T09:42:10.665Z,860.00
2023-01-13T09:43:10.472Z,860.00
2023-01-13T09:44:10.420Z,860.00
2023-01-13T09:45:10.438Z,856.00
2023-01-13T09:46:10.435Z,860.00
2023-01-13T09:47:12.040Z,852.00
2023-01-13T09:48:10.410Z,852.00
2023-01-13T09:49:10.331Z,852.00
2023-01-13T09:50:10.361Z,848.00
2023-01-13T09:51:10.387Z,852.00
2023-01-13T09:52:10.308Z,848.00
2023-01-13T09:53:10.319Z,848.00
2023-01-13T09:54:10.304Z,852.00
2023-01-13T09:55:10.306Z,852.00
2023-01-13T09:56:10.294Z,856.00
2023-01-13T09:57:10.266Z,856.00
2023-01-13T09:58:10.292Z,864.00
2023-01-13T09:59:10.279Z,868.00
2023-01-13T10:00:10.236Z,860.00
2023-01-13T10:01:10.238Z,916.00
2023-01-13T10:02:10.263Z,900.00
2023-01-13T10:03:10.265Z,1100.00
2023-01-13T10:04:10.185Z,1040.00
2023-01-13T10:05:10.292Z,1220.00
2023-01-13T10:06:10.198Z,1244.00
2023-01-13T10:07:10.177Z,992.00
2023-01-13T10:08:10.155Z,1528.00
2023-01-13T10:09:10.111Z,1840.00
2023-01-13T10:10:10.129Z,1696.00
2023-01-13T10:11:10.147Z,1680.00
2023-01-13T10:12:10.136Z,1484.00
2023-01-13T10:13:10.123Z,1624.00
2023-01-13T10:14:10.088Z,2176.00
2023-01-13T10:15:10.077Z,2256.00
2023-01-13T10:16:10.232Z,1936.00
2023-01-13T10:17:10.040Z,1900.00
2023-01-13T10:18:10.071Z,2220.00
2023-01-13T10:19:10.040Z,1984.00
2023-01-13T10:20:10.075Z,2544.00
2023-01-13T10:21:10.016Z,2848.00
2023-01-13T10:22:10.006Z,1804.00
2023-01-13T10:23:09.999Z,1560.00
2023-01-13T10:24:09.996Z,2052.00
2023-01-13T10:25:09.969Z,2392.00
2023-01-13T10:26:10.096Z,1964.00
2023-01-13T10:27:09.988Z,2076.00
2023-01-13T10:28:09.941Z,3332.00
2023-01-13T10:29:10.016Z,3120.00
2023-01-13T10:30:10.160Z,2444.00
2023-01-13T10:31:09.987Z,1788.00
2023-01-13T10:32:09.980Z,2152.00
2023-01-13T10:33:10.352Z,1408.00
2023-01-13T10:34:09.891Z,1704.00
2023-01-13T10:35:09.869Z,1884.00
2023-01-13T10:36:09.897Z,1616.00
2023-01-13T10:37:09.858Z,2504.00
2023-01-13T10:38:09.877Z,2608.00
2023-01-13T10:39:09.861Z,1888.00
2023-01-13T10:40:09.868Z,1240.00
2023-01-13T10:41:09.818Z,1168.00
2023-01-13T10:42:09.832Z,1108.00
2023-01-13T10:43:09.828Z,928.00
2023-01-13T10:44:09.896Z,1256.00
2023-01-13T10:45:09.754Z,2500.00
2023-01-13T10:46:09.768Z,2196.00
2023-01-13T10:47:09.737Z,2336.00
2023-01-13T10:48:09.805Z,1912.00
2023-01-13T10:49:09.735Z,2636.00
2023-01-13T10:50:09.903Z,1916.00
2023-01-13T10:51:09.747Z,1616.00
2023-01-13T10:52:09.750Z,1344.00
2023-01-13T10:53:09.713Z,1412.00
2023-01-13T10:54:09.700Z,900.00
2023-01-13T10:55:09.698Z,960.00
2023-01-13T10:56:09.746Z,884.00
2023-01-13T10:57:09.673Z,860.00
2023-01-13T10:58:09.680Z,840.00
2023-01-13T10:59:09.702Z,1572.00
2023-01-13T11:00:09.626Z,1204.00
2023-01-13T11:01:09.669Z,1296.00
2023-01-13T11:02:24.268Z,1092.00
2023-01-13T11:03:10.599Z,1632.00
2023-01-13T11:04:09.828Z,1464.00
2023-01-13T11:05:09.596Z,1560.00
2023-01-13T11:06:09.555Z,2428.00
2023-01-13T11:07:09.605Z,2240.00
2023-01-13T11:08:09.613Z,2264.00
2023-01-13T11:09:09.554Z,2400.00
2023-01-13T11:10:09.519Z,2320.00
2023-01-13T11:11:09.543Z,2020.00
2023-01-13T11:12:09.490Z,1568.00
2023-01-13T11:13:09.486Z,1664.00
2023-01-13T11:14:09.531Z,2832.00
2023-01-13T11:15:09.612Z,2640.00
2023-01-13T11:16:09.474Z,1944.00
2023-01-13T11:17:09.443Z,1972.00
2023-01-13T11:18:09.451Z,2512.00
2023-01-13T11:19:09.443Z,1804.00
2023-01-13T11:20:09.440Z,2404.00
2023-01-13T11:21:09.389Z,3496.00
2023-01-13T11:22:09.462Z,3248.00
2023-01-13T11:23:09.453Z,3176.00
2023-01-13T11:24:09.390Z,2604.00
2023-01-13T11:25:09.450Z,3296.00
2023-01-13T11:26:09.373Z,2476.00
2023-01-13T11:27:09.370Z,3052.00
2023-01-13T11:28:09.363Z,2604.00
2023-01-13T11:29:09.324Z,2400.00
2023-01-13T11:30:09.299Z,1696.00
2023-01-13T11:31:09.329Z,1312.00
2023-01-13T11:32:09.358Z,1472.00
2023-01-13T11:33:09.299Z,1696.00
2023-01-13T11:34:09.273Z,1816.00
2023-01-13T11:35:09.297Z,2120.00
2023-01-13T11:36:09.300Z,2656.00
2023-01-13T11:37:09.321Z,2712.00
2023-01-13T11:38:09.223Z,3576.00
2023-01-13T11:39:09.221Z,3616.00
2023-01-13T11:40:09.255Z,3664.00
2023-01-13T11:41:09.213Z,3740.00
2023-01-13T11:42:09.195Z,3516.00
2023-01-13T11:43:09.172Z,2640.00
2023-01-13T11:44:09.184Z,1944.00
2023-01-13T11:45:09.203Z,2332.00
2023-01-13T11:46:09.152Z,3928.00
2023-01-13T11:47:09.130Z,2540.00
2023-01-13T11:48:09.141Z,2628.00
2023-01-13T11:49:09.108Z,1828.00
2023-01-13T11:50:09.093Z,1644.00
2023-01-13T11:51:09.097Z,1432.00
2023-01-13T11:52:09.116Z,2352.00
2023-01-13T11:53:09.054Z,2200.00
2023-01-13T11:54:09.082Z,1856.00
2023-01-13T11:55:09.092Z,1540.00
2023-01-13T11:56:09.076Z,1952.00
2023-01-13T11:57:09.031Z,3936.00
2023-01-13T11:58:09.019Z,3648.00
2023-01-13T11:59:09.024Z,2856.00
2023-01-13T12:00:09.017Z,3884.00
2023-01-13T12:01:09.094Z,2816.00
2023-01-13T12:02:09.207Z,1988.00
2023-01-13T12:03:09.056Z,1756.00
2023-01-13T12:04:08.977Z,3168.00
2023-01-13T12:05:08.959Z,1956.00
2023-01-13T12:06:08.983Z,1444.00
2023-01-13T12:07:08.962Z,928.00
2023-01-13T12:08:08.917Z,1604.00
2023-01-13T12:09:08.905Z,3480.00
2023-01-13T12:10:13.251Z,3436.00
2023-01-13T12:11:08.919Z,3436.00
2023-01-13T12:12:08.910Z,2316.00
2023-01-13T12:13:08.871Z,2944.00
2023-01-13T12:14:08.912Z,1296.00
2023-01-13T12:15:08.879Z,932.00
2023-01-13T12:16:08.895Z,1048.00
2023-01-13T12:17:08.858Z,1832.00
2023-01-13T12:18:08.847Z,1916.00
2023-01-13T12:19:08.854Z,1720.00
2023-01-13T12:20:08.818Z,1576.00
2023-01-13T12:21:08.782Z,1296.00
2023-01-13T12:22:09.037Z,1152.00
2023-01-13T12:23:08.758Z,1584.00
2023-01-13T12:24:08.756Z,1520.00
2023-01-13T12:25:08.745Z,1008.00
2023-01-13T12:26:08.768Z,1176.00
2023-01-13T12:27:08.726Z,2896.00
2023-01-13T12:28:08.739Z,2384.00
2023-01-13T12:29:08.723Z,1584.00
2023-01-13T12:30:08.774Z,1548.00
2023-01-13T12:31:08.667Z,1492.00
2023-01-13T12:32:08.690Z,1204.00
2023-01-13T12:33:08.679Z,716.00
2023-01-13T12:34:08.661Z,532.00
2023-01-13T12:35:08.638Z,648.00
2023-01-13T12:36:08.661Z,640.00
2023-01-13T12:37:08.628Z,624.00
2023-01-13T12:38:08.628Z,504.00
2023-01-13T12:39:08.647Z,504.00
2023-01-13T12:40:08.592Z,484.00
2023-01-13T12:41:08.586Z,496.00
2023-01-13T12:42:08.549Z,780.00
2023-01-13T12:43:08.568Z,724.00
2023-01-13T12:44:08.619Z,732.00
2023-01-13T12:45:08.540Z,1320.00
2023-01-13T12:46:08.604Z,1456.00
2023-01-13T12:47:08.514Z,1220.00
2023-01-13T12:48:08.513Z,1112.00
2023-01-13T12:49:08.494Z,936.00
2023-01-13T12:50:08.512Z,792.00
2023-01-13T12:51:08.475Z,792.00
2023-01-13T12:52:08.470Z,776.00
2023-01-13T12:53:08.452Z,848.00
2023-01-13T12:54:08.440Z,1536.00